Time;durP1;ratioP1;P1;durP2;ratioP2;P2;SDS_P1;SDS_P2;PMS_P1;PMS_P2;Temp;Humidity;BMP_temperature;BMP_pressure;BME280_temperature;BME280_humidity;BME280_pressure;Samples;Min_cycle;Max_cycle;Signal;HPM_P1;HPM_P2
2021/09/20 00:02:12;;;;;;;1.38;1.02;;;18.60;51.60;;;;;;5069705;28;20344;-53
2021/09/20 00:04:43;;;;;;;2.20;1.00;;;18.70;51.50;;;;;;5067059;28;20290;-48
2021/09/20 00:07:13;;;;;;;1.13;0.80;;;18.70;51.40;;;;;;5058977;28;20253;-53
2021/09/20 00:09:43;;;;;;;1.00;0.70;;;18.70;51.30;;;;;;5068416;28;20238;-49
2021/09/20 00:12:13;;;;;;;1.67;0.80;;;18.80;51.30;;;;;;5068960;28;20299;-55
2021/09/20 00:14:43;;;;;;;3.28;1.00;;;18.70;51.40;;;;;;5083352;28;20225;-49
2021/09/20 00:17:12;;;;;;;1.05;0.65;;;18.80;51.40;;;;;;5078961;28;20276;-56
2021/09/20 00:19:43;;;;;;;1.00;0.90;;;18.80;51.30;;;;;;5068183;28;20238;-55
2021/09/20 00:22:13;;;;;;;1.42;0.70;;;18.80;51.30;;;;;;5066833;28;20223;-56
2021/09/20 00:24:43;;;;;;;2.40;0.88;;;18.90;51.20;;;;;;5069011;28;20238;-56
2021/09/20 00:27:13;;;;;;;1.15;0.95;;;18.90;51.00;;;;;;5067843;28;20254;-47
2021/09/20 00:29:42;;;;;;;1.73;0.90;;;18.90;50.90;;;;;;5069086;28;20199;-47
2021/09/20 00:32:12;;;;;;;1.77;0.80;;;18.90;50.90;;;;;;5067625;28;20272;-46
2021/09/20 00:34:43;;;;;;;3.40;0.88;;;18.90;50.90;;;;;;5068610;28;20742;-51
2021/09/20 00:37:13;;;;;;;0.80;0.70;;;19.00;50.90;;;;;;5067257;28;20306;-49
2021/09/20 00:39:43;;;;;;;1.05;0.63;;;19.00;50.80;;;;;;5057777;28;20241;-56
2021/09/20 00:42:13;;;;;;;2.70;0.77;;;19.00;50.70;;;;;;5070091;28;20241;-57
2021/09/20 00:44:42;;;;;;;1.65;1.00;;;19.00;50.60;;;;;;5071511;28;20269;-57
2021/09/20 00:47:12;;;;;;;0.85;0.70;;;19.00;50.50;;;;;;5068344;28;20302;-52
2021/09/20 00:49:43;;;;;;;2.15;0.70;;;19.10;50.60;;;;;;5067573;28;20238;-55
2021/09/20 00:52:13;;;;;;;1.52;0.70;;;19.10;50.60;;;;;;5071908;28;20675;-50
2021/09/20 00:54:43;;;;;;;0.77;0.60;;;19.20;50.50;;;;;;5070770;28;20253;-57
2021/09/20 00:57:13;;;;;;;1.45;0.75;;;19.20;50.50;;;;;;5070769;28;20317;-58
2021/09/20 00:59:43;;;;;;;0.75;0.55;;;19.20;50.40;;;;;;5072292;28;20297;-54
2021/09/20 01:02:13;;;;;;;1.92;0.80;;;19.20;50.30;;;;;;5071436;28;20230;-51
2021/09/20 01:04:44;;;;;;;3.58;0.90;;;19.20;50.20;;;;;;5072121;28;20632;-57
2021/09/20 01:07:14;;;;;;;1.05;0.77;;;19.20;50.20;;;;;;5071617;28;20227;-55
2021/09/20 01:09:44;;;;;;;2.08;1.00;;;19.30;50.20;;;;;;5072789;28;20299;-56
2021/09/20 01:12:14;;;;;;;1.42;0.70;;;19.30;50.10;;;;;;5071945;28;20344;-56
2021/09/20 01:14:44;;;;;;;2.00;0.65;;;19.30;50.00;;;;;;5071750;28;20238;-52
2021/09/20 01:17:14;;;;;;;0.75;0.68;;;19.30;50.00;;;;;;5070632;28;20580;-48
2021/09/20 01:19:45;;;;;;;0.95;0.60;;;19.30;50.00;;;;;;5071751;28;20286;-53
2021/09/20 01:22:17;;;;;;;2.00;0.77;;;19.30;50.00;;;;;;5070820;28;20236;-54
2021/09/20 01:24:48;;;;;;;1.55;0.60;;;19.40;49.90;;;;;;5071182;28;20242;-51
2021/09/20 01:27:18;;;;;;;1.60;0.63;;;19.40;50.40;;;;;;5070540;28;20302;-51
2021/09/20 01:29:48;;;;;;;1.08;0.73;;;19.40;49.70;;;;;;5071345;28;20295;-56
2021/09/20 01:32:18;;;;;;;1.45;0.50;;;19.40;49.70;;;;;;5070894;28;20619;-54
2021/09/20 01:34:48;;;;;;;1.83;0.93;;;19.40;49.60;;;;;;5070641;28;20246;-54
2021/09/20 01:37:17;;;;;;;2.17;0.50;;;19.50;49.50;;;;;;5071225;28;20742;-54
2021/09/20 01:39:48;;;;;;;1.85;0.73;;;19.50;49.30;;;;;;5072322;28;20246;-48
2021/09/20 01:42:18;;;;;;;2.10;0.70;;;19.50;49.20;;;;;;5071772;28;20245;-54
2021/09/20 01:44:48;;;;;;;1.65;0.60;;;19.50;49.10;;;;;;5071911;28;20210;-57
2021/09/20 01:47:17;;;;;;;1.15;0.60;;;19.50;49.00;;;;;;5071494;28;20721;-55
2021/09/20 01:49:47;;;;;;;1.15;0.80;;;19.50;48.90;;;;;;5071871;28;20250;-55
2021/09/20 01:52:17;;;;;;;1.10;0.63;;;19.60;48.80;;;;;;5071391;28;20286;-58
2021/09/20 01:54:48;;;;;;;1.17;0.80;;;19.60;48.90;;;;;;5071130;28;20249;-47
2021/09/20 01:57:22;;;;;;;1.50;0.77;;;19.60;48.90;;;;;;5071267;28;20254;-50
2021/09/20 01:59:52;;;;;;;1.10;0.50;;;19.60;48.90;;;;;;5071078;28;20205;-57
2021/09/20 02:02:22;;;;;;;2.15;0.57;;;19.60;48.70;;;;;;5070475;28;20249;-52
2021/09/20 02:04:51;;;;;;;1.58;0.65;;;19.60;48.80;;;;;;5071231;28;20217;-56
2021/09/20 02:07:21;;;;;;;1.50;0.68;;;19.60;48.80;;;;;;5069650;28;20257;-55
2021/09/20 02:09:52;;;;;;;1.48;0.60;;;19.60;48.70;;;;;;5088426;28;20340;-56
2021/09/20 02:12:22;;;;;;;1.02;0.60;;;19.60;48.70;;;;;;5068689;28;20242;-55
2021/09/20 02:14:52;;;;;;;2.15;0.70;;;19.70;48.70;;;;;;5080436;28;20275;-54
2021/09/20 02:17:21;;;;;;;2.33;0.80;;;19.70;48.60;;;;;;5080335;28;20292;-52
2021/09/20 02:19:51;;;;;;;1.10;0.68;;;19.70;48.40;;;;;;5070233;28;20320;-54
2021/09/20 02:22:21;;;;;;;1.95;0.50;;;19.70;48.30;;;;;;5070450;28;20257;-53
2021/09/20 02:24:52;;;;;;;1.45;0.70;;;19.70;48.20;;;;;;5070227;28;20265;-55
2021/09/20 02:27:22;;;;;;;2.55;0.50;;;19.80;48.20;;;;;;5070153;28;20222;-52
2021/09/20 02:29:52;;;;;;;1.98;0.77;;;19.80;48.20;;;;;;5068951;28;20933;-54
2021/09/20 02:32:22;;;;;;;1.15;0.50;;;19.80;48.10;;;;;;5070626;28;20612;-54
2021/09/20 02:34:52;;;;;;;2.67;0.50;;;19.80;48.10;;;;;;5069789;28;20635;-51
2021/09/20 02:37:22;;;;;;;0.93;0.40;;;19.80;48.10;;;;;;5052341;28;20694;-53
2021/09/20 02:39:53;;;;;;;0.60;0.50;;;19.80;48.10;;;;;;5068223;28;20242;-54
2021/09/20 02:42:23;;;;;;;1.20;0.50;;;19.80;48.20;;;;;;5071323;28;20237;-57
2021/09/20 02:44:53;;;;;;;0.80;0.50;;;19.90;48.30;;;;;;5070286;28;20202;-54
2021/09/20 02:47:22;;;;;;;0.93;0.68;;;19.90;48.20;;;;;;5076121;28;20225;-52
2021/09/20 02:49:52;;;;;;;1.25;0.70;;;19.90;48.20;;;;;;5070410;28;20632;-55
2021/09/20 02:52:24;;;;;;;1.35;0.63;;;19.90;48.20;;;;;;5085333;28;20237;-47
2021/09/20 02:54:55;;;;;;;0.90;0.50;;;19.90;48.20;;;;;;5085559;28;20246;-56
2021/09/20 02:57:25;;;;;;;1.45;0.50;;;19.90;48.10;;;;;;5068475;28;20273;-56
2021/09/20 02:59:55;;;;;;;1.98;0.70;;;20.00;47.90;;;;;;5069472;28;20246;-52
2021/09/20 03:02:25;;;;;;;1.50;0.63;;;20.00;47.80;;;;;;5068516;28;20553;-57
2021/09/20 03:04:54;;;;;;;1.88;0.80;;;20.00;47.80;;;;;;5072717;28;20229;-56
2021/09/20 03:07:24;;;;;;;1.52;0.70;;;20.00;47.70;;;;;;5082031;28;20273;-46
2021/09/20 03:09:55;;;;;;;2.58;0.70;;;20.00;47.70;;;;;;5069498;28;20697;-48
2021/09/20 03:12:25;;;;;;;1.38;0.80;;;20.10;47.80;;;;;;5069402;28;20510;-47
2021/09/20 03:14:55;;;;;;;1.67;0.75;;;20.10;47.90;;;;;;5070372;28;20639;-53
2021/09/20 03:17:25;;;;;;;3.53;0.70;;;20.10;47.90;;;;;;5068779;28;20227;-47
2021/09/20 03:19:54;;;;;;;1.10;0.52;;;20.10;47.90;;;;;;5072592;28;20233;-52
2021/09/20 03:22:24;;;;;;;1.15;0.60;;;20.10;48.00;;;;;;5089903;28;20249;-49
2021/09/20 03:24:55;;;;;;;2.28;0.57;;;20.20;48.10;;;;;;5084897;28;20254;-56
2021/09/20 03:27:25;;;;;;;1.25;0.70;;;20.20;48.10;;;;;;5069529;28;20310;-56
2021/09/20 03:29:55;;;;;;;1.00;0.50;;;20.20;48.20;;;;;;5068854;28;20250;-54
2021/09/20 03:32:24;;;;;;;1.48;0.60;;;20.20;48.20;;;;;;5069425;28;20269;-56
2021/09/20 03:34:54;;;;;;;1.23;0.60;;;20.30;48.20;;;;;;5088130;28;20564;-53
2021/09/20 03:37:24;;;;;;;1.38;0.55;;;20.30;47.90;;;;;;5081651;28;20258;-54
2021/09/20 03:39:55;;;;;;;6.65;1.17;;;20.30;47.80;;;;;;5068634;28;20627;-46
2021/09/20 03:42:25;;;;;;;1.20;0.70;;;20.30;48.00;;;;;;5068429;28;20239;-46
2021/09/20 03:44:55;;;;;;;2.40;0.75;;;20.40;48.10;;;;;;5085222;28;20293;-49
2021/09/20 03:47:25;;;;;;;1.58;0.70;;;20.40;47.90;;;;;;5065613;28;20444;-52
2021/09/20 03:49:55;;;;;;;1.17;0.60;;;20.40;47.80;;;;;;5069245;28;20586;-52
2021/09/20 03:52:24;;;;;;;1.63;0.70;;;20.50;47.70;;;;;;5077730;28;20234;-49
2021/09/20 03:54:55;;;;;;;1.40;0.65;;;20.50;47.80;;;;;;5067632;28;20207;-48
2021/09/20 03:57:26;;;;;;;1.42;0.60;;;20.50;47.90;;;;;;4951106;28;2396117;-52
2021/09/20 03:59:56;;;;;;;1.48;0.70;;;20.50;48.00;;;;;;5050677;28;20235;-52
2021/09/20 04:02:27;;;;;;;1.75;0.70;;;20.50;48.00;;;;;;5047702;28;20318;-50
2021/09/20 04:04:57;;;;;;;1.80;0.80;;;20.60;48.00;;;;;;5050250;28;20235;-50
2021/09/20 04:07:28;;;;;;;1.95;0.57;;;20.60;48.00;;;;;;5050552;28;20699;-48
2021/09/20 04:10:01;;;;;;;1.88;0.90;;;20.60;48.00;;;;;;5050133;28;20548;-49
2021/09/20 04:12:31;;;;;;;1.20;0.65;;;20.70;48.70;;;;;;5050130;28;20210;-46
2021/09/20 04:15:02;;;;;;;0.85;0.47;;;20.70;48.00;;;;;;5047560;28;20242;-51
2021/09/20 04:17:32;;;;;;;1.00;0.50;;;20.70;48.00;;;;;;5043567;28;20262;-53
2021/09/20 04:20:03;;;;;;;2.25;0.75;;;20.80;48.00;;;;;;5032624;28;20660;-54
2021/09/20 04:22:33;;;;;;;1.70;0.77;;;20.80;48.00;;;;;;5049644;28;20199;-51
2021/09/20 04:25:06;;;;;;;1.08;0.60;;;20.80;48.10;;;;;;5050919;28;20322;-56
2021/09/20 04:27:36;;;;;;;0.82;0.57;;;20.90;48.10;;;;;;5051568;28;20327;-49
2021/09/20 04:30:07;;;;;;;0.90;0.63;;;20.90;48.00;;;;;;5053434;28;20286;-49
2021/09/20 04:32:37;;;;;;;1.23;0.60;;;20.90;48.10;;;;;;5052678;28;20241;-50
2021/09/20 04:35:08;;;;;;;1.10;0.57;;;20.90;48.00;;;;;;5052209;28;20307;-47
2021/09/20 04:37:39;;;;;;;1.67;0.70;;;21.00;48.10;;;;;;5042504;28;20251;-51
2021/09/20 04:40:12;;;;;;;0.75;0.60;;;21.00;48.10;;;;;;5034039;28;20286;-51
2021/09/20 04:42:43;;;;;;;1.23;0.70;;;21.00;48.00;;;;;;5031650;28;20230;-56
2021/09/20 04:45:14;;;;;;;0.82;0.40;;;21.00;47.90;;;;;;5032340;28;20539;-51
2021/09/20 04:47:44;;;;;;;1.95;0.50;;;21.10;48.00;;;;;;5041879;28;20707;-57
2021/09/20 04:50:15;;;;;;;1.75;0.65;;;21.10;47.90;;;;;;5052217;28;20242;-47
2021/09/20 04:52:45;;;;;;;1.70;0.47;;;21.10;48.00;;;;;;5052645;28;20238;-50
2021/09/20 04:55:17;;;;;;;1.70;0.52;;;21.20;47.90;;;;;;5048953;28;20558;-56
2021/09/20 04:57:48;;;;;;;1.02;0.60;;;21.20;47.80;;;;;;5061791;28;20222;-54
2021/09/20 05:00:19;;;;;;;1.08;0.52;;;21.20;47.70;;;;;;5072095;28;20226;-46
2021/09/20 05:02:49;;;;;;;0.70;0.50;;;21.20;47.60;;;;;;5073501;28;20256;-55
2021/09/20 05:05:20;;;;;;;2.33;0.70;;;21.20;47.50;;;;;;5072036;28;20230;-48
2021/09/20 05:07:50;;;;;;;0.88;0.60;;;21.30;47.60;;;;;;5072702;28;20304;-48
2021/09/20 05:10:22;;;;;;;1.73;0.63;;;21.30;47.50;;;;;;5072134;28;20230;-52
2021/09/20 05:12:53;;;;;;;1.50;0.63;;;21.30;47.60;;;;;;5072941;28;20234;-47
2021/09/20 05:15:23;;;;;;;1.25;0.60;;;21.30;47.60;;;;;;5072768;28;20620;-57
2021/09/20 05:17:54;;;;;;;2.85;1.00;;;21.40;47.50;;;;;;5069172;28;20327;-43
2021/09/20 05:20:24;;;;;;;5.75;1.30;;;21.40;47.60;;;;;;5071814;28;20283;-45
2021/09/20 05:22:55;;;;;;;6.75;1.52;;;21.40;47.10;;;;;;5072481;28;20203;-48
2021/09/20 05:25:27;;;;;;;4.60;1.27;;;21.40;46.90;;;;;;5072612;28;20689;-54
2021/09/20 05:27:57;;;;;;;5.43;1.10;;;21.40;47.00;;;;;;5072600;28;20257;-52
2021/09/20 05:30:28;;;;;;;3.83;1.25;;;21.40;47.10;;;;;;5073392;28;20226;-54
2021/09/20 05:32:58;;;;;;;6.28;1.27;;;21.50;47.20;;;;;;5073293;28;20279;-53
2021/09/20 05:35:29;;;;;;;5.03;1.02;;;21.50;47.30;;;;;;5072898;28;20206;-45
2021/09/20 05:37:59;;;;;;;4.25;1.40;;;21.60;47.40;;;;;;5072920;28;20218;-54
2021/09/20 05:40:33;;;;;;;5.82;1.60;;;21.60;47.40;;;;;;5073290;28;20248;-50
2021/09/20 05:43:04;;;;;;;2.60;1.02;;;21.60;47.40;;;;;;5072962;28;20206;-51
2021/09/20 05:45:34;;;;;;;3.83;0.98;;;21.70;47.40;;;;;;5072657;28;20278;-50
2021/09/20 05:48:05;;;;;;;4.90;1.35;;;21.70;47.50;;;;;;5072146;28;20624;-49
2021/09/20 05:50:35;;;;;;;4.30;0.98;;;21.70;47.40;;;;;;5072587;28;20238;-53
2021/09/20 05:53:06;;;;;;;2.05;1.02;;;21.70;47.50;;;;;;5072611;28;20230;-54
2021/09/20 05:55:38;;;;;;;3.45;1.13;;;21.80;47.60;;;;;;5072612;28;20207;-51
2021/09/20 05:58:08;;;;;;;5.55;1.40;;;21.70;47.60;;;;;;5072608;28;20265;-58
2021/09/20 06:00:39;;;;;;;4.00;1.23;;;21.80;47.40;;;;;;5067133;28;20432;-54
2021/09/20 06:03:09;;;;;;;5.18;1.30;;;21.80;47.40;;;;;;5071259;28;20191;-55
2021/09/20 06:05:40;;;;;;;3.63;1.20;;;21.80;47.30;;;;;;5074490;28;20237;-57
2021/09/20 06:08:11;;;;;;;3.17;1.15;;;21.80;47.30;;;;;;5061517;28;20299;-56
2021/09/20 06:10:43;;;;;;;4.18;1.30;;;21.80;47.40;;;;;;5071852;28;20601;-53
2021/09/20 06:13:13;;;;;;;4.07;1.20;;;21.80;47.40;;;;;;5068898;28;20234;-57
2021/09/20 06:15:44;;;;;;;3.92;1.23;;;21.80;47.40;;;;;;5072315;28;20195;-54
2021/09/20 06:18:14;;;;;;;4.60;1.20;;;21.80;47.40;;;;;;5068604;28;20237;-58
2021/09/20 06:20:45;;;;;;;3.10;1.02;;;21.80;47.40;;;;;;5070180;28;20230;-58
2021/09/20 06:23:15;;;;;;;4.38;1.63;;;21.70;47.40;;;;;;5071278;28;20240;-57
2021/09/20 06:25:47;;;;;;;4.15;1.00;;;21.70;47.40;;;;;;5071585;28;20242;-54
2021/09/20 06:28:18;;;;;;;3.17;1.35;;;21.70;48.10;;;;;;5070935;28;20218;-50
2021/09/20 06:30:48;;;;;;;5.70;1.35;;;21.70;47.50;;;;;;5071156;28;20227;-53
2021/09/20 06:33:19;;;;;;;5.32;1.20;;;21.70;47.50;;;;;;5071949;28;20233;-53
2021/09/20 06:35:49;;;;;;;2.35;1.30;;;21.70;47.50;;;;;;5089905;28;20226;-54
2021/09/20 06:38:20;;;;;;;1.98;1.05;;;21.70;47.50;;;;;;5091222;28;20253;-56
2021/09/20 06:40:52;;;;;;;1.95;1.50;;;21.60;47.40;;;;;;5070412;28;20268;-55
2021/09/20 06:43:22;;;;;;;2.80;1.42;;;21.60;47.40;;;;;;5069936;28;20234;-56
2021/09/20 06:45:53;;;;;;;4.07;1.65;;;21.60;47.50;;;;;;5071449;28;20187;-54
2021/09/20 06:48:23;;;;;;;3.97;1.58;;;21.60;47.50;;;;;;5068025;28;20573;-53
2021/09/20 06:50:54;;;;;;;4.75;1.30;;;21.60;47.60;;;;;;5070527;28;20199;-58
2021/09/20 06:53:25;;;;;;;1.85;1.30;;;21.50;47.50;;;;;;5068004;28;20300;-58
2021/09/20 06:55:57;;;;;;;3.05;1.42;;;21.50;47.50;;;;;;5071121;28;20234;-57
2021/09/20 06:58:28;;;;;;;2.33;1.10;;;21.50;47.60;;;;;;5069524;28;20287;-59
2021/09/20 07:00:58;;;;;;;3.40;1.35;;;21.50;47.60;;;;;;5071034;28;20234;-60
2021/09/20 07:03:29;;;;;;;3.70;1.23;;;21.40;47.60;;;;;;5070526;28;20241;-54
2021/09/20 07:05:59;;;;;;;2.75;1.67;;;21.40;47.60;;;;;;5070326;28;20230;-57
2021/09/20 07:08:29;;;;;;;2.63;1.17;;;21.40;47.70;;;;;;5070101;28;20250;-53
2021/09/20 07:11:07;;;;;;;1.52;1.08;;;21.40;47.70;;;;;;5068387;28;20198;-54
2021/09/20 07:13:38;;;;;;;2.38;1.48;;;21.40;47.70;;;;;;5070167;28;20241;-50
2021/09/20 07:16:08;;;;;;;2.22;1.38;;;21.30;47.60;;;;;;5071296;28;20238;-58
2021/09/20 07:18:39;;;;;;;4.18;1.70;;;21.30;47.60;;;;;;5071579;28;20214;-53
2021/09/20 07:21:09;;;;;;;2.67;1.20;;;21.20;47.60;;;;;;5071779;28;20230;-50
2021/09/20 07:23:40;;;;;;;2.35;1.33;;;21.20;47.60;;;;;;5071098;28;20234;-57
2021/09/20 07:26:12;;;;;;;1.20;1.10;;;21.20;47.60;;;;;;5071191;28;20238;-51
2021/09/20 07:28:42;;;;;;;1.45;1.15;;;21.10;47.60;;;;;;5071224;28;20257;-52
2021/09/20 07:31:13;;;;;;;2.05;1.17;;;21.10;47.70;;;;;;5070955;28;20281;-55
2021/09/20 07:33:43;;;;;;;2.92;1.40;;;21.10;47.80;;;;;;5070917;28;20241;-57
2021/09/20 07:36:14;;;;;;;2.90;1.40;;;21.10;47.80;;;;;;5070683;28;20199;-57
2021/09/20 07:38:44;;;;;;;5.40;1.75;;;21.00;47.90;;;;;;5070845;28;20254;-57
2021/09/20 07:41:16;;;;;;;3.45;1.55;;;21.10;47.90;;;;;;5071123;28;20603;-58
2021/09/20 07:43:47;;;;;;;3.03;1.35;;;21.00;47.90;;;;;;5071349;28;20249;-59
2021/09/20 07:46:19;;;;;;;2.72;1.27;;;21.00;47.90;;;;;;5071674;28;20202;-57
2021/09/20 07:48:50;;;;;;;3.15;1.40;;;20.90;47.90;;;;;;5070650;28;20567;-58
2021/09/20 07:51:20;;;;;;;2.17;1.27;;;21.00;48.00;;;;;;5074783;28;20252;-56
2021/09/20 07:53:50;;;;;;;1.92;1.17;;;20.90;48.00;;;;;;5077635;28;20233;-55
2021/09/20 07:56:23;;;;;;;2.97;1.23;;;20.90;48.00;;;;;;5077022;28;20226;-57
2021/09/20 07:58:53;;;;;;;3.72;1.90;;;20.90;48.10;;;;;;5077872;28;20238;-58
2021/09/20 08:01:24;;;;;;;6.78;1.63;;;20.80;48.00;;;;;;5077765;28;20233;-56
2021/09/20 08:03:55;;;;;;;11.70;2.10;;;20.80;48.00;;;;;;5077426;28;20286;-56
2021/09/20 08:06:28;;;;;;;2.42;1.60;;;20.80;48.10;;;;;;5078350;28;20251;-55
2021/09/20 08:08:59;;;;;;;5.50;1.70;;;20.80;48.10;;;;;;5077754;28;20199;-57
2021/09/20 08:11:32;;;;;;;3.45;1.48;;;20.70;48.10;;;;;;5077319;28;20199;-55
2021/09/20 08:14:02;;;;;;;5.25;1.70;;;20.70;48.10;;;;;;5077293;28;20489;-55
2021/09/20 08:16:33;;;;;;;3.42;1.52;;;20.70;48.10;;;;;;5077433;28;20276;-58
2021/09/20 08:19:03;;;;;;;3.35;1.52;;;20.70;48.20;;;;;;5077485;28;20671;-50
2021/09/20 08:21:34;;;;;;;4.80;1.50;;;20.60;48.20;;;;;;5076985;28;20678;-53
2021/09/20 08:24:05;;;;;;;4.15;1.48;;;20.60;48.20;;;;;;5076685;28;20190;-56
2021/09/20 08:26:37;;;;;;;7.03;1.60;;;20.60;48.30;;;;;;5076678;28;20249;-56
2021/09/20 08:29:08;;;;;;;3.00;1.27;;;20.60;48.30;;;;;;5077401;28;20226;-56
2021/09/20 08:31:38;;;;;;;2.75;1.60;;;20.50;48.30;;;;;;5076881;28;20233;-56
2021/09/20 08:34:08;;;;;;;4.93;1.40;;;20.50;48.40;;;;;;5076726;28;20235;-58
2021/09/20 08:36:39;;;;;;;4.05;1.30;;;20.50;48.40;;;;;;5077145;28;20260;-56
2021/09/20 08:39:09;;;;;;;2.88;1.30;;;20.40;48.40;;;;;;5077100;28;20234;-57
2021/09/20 08:41:43;;;;;;;2.70;1.20;;;20.40;48.40;;;;;;5076844;28;20291;-57
2021/09/20 08:44:14;;;;;;;3.45;1.15;;;20.40;48.40;;;;;;5077472;28;20199;-53
2021/09/20 08:46:44;;;;;;;4.90;1.30;;;20.40;48.40;;;;;;5077086;28;20234;-57
2021/09/20 08:49:15;;;;;;;1.45;0.93;;;20.30;48.30;;;;;;5076846;28;20237;-49
2021/09/20 08:51:45;;;;;;;3.35;1.40;;;20.30;48.30;;;;;;5077496;28;20244;-58
2021/09/20 08:54:17;;;;;;;3.80;1.50;;;20.30;48.40;;;;;;5077317;28;20230;-57
2021/09/20 08:56:49;;;;;;;4.25;1.30;;;20.30;48.40;;;;;;5057762;28;20230;-54
2021/09/20 08:59:20;;;;;;;2.83;1.10;;;20.20;48.50;;;;;;5075593;28;20230;-54
2021/09/20 09:01:53;;;;;;;3.22;1.27;;;20.20;48.50;;;;;;5074620;28;20227;-53
2021/09/20 09:04:27;;;;;;;2.22;1.08;;;20.20;48.50;;;;;;5072615;28;20546;-54
2021/09/20 09:06:59;;;;;;;6.07;1.23;;;20.20;48.60;;;;;;5081624;22;20213;-45
2021/09/20 09:09:31;;;;;;;2.33;1.35;;;20.20;48.60;;;;;;5073834;28;20233;-46
2021/09/20 09:12:17;;;;;;;1.70;1.20;;;20.10;48.50;;;;;;5088806;28;20284;-46
2021/09/20 09:14:50;;;;;;;2.17;1.10;;;20.10;48.60;;;;;;5093152;28;20681;-45
2021/09/20 09:17:22;;;;;;;2.45;1.00;;;20.10;48.60;;;;;;5081142;28;20313;-43
2021/09/20 09:19:54;;;;;;;2.30;1.20;;;20.10;48.60;;;;;;5073342;28;20226;-49
2021/09/20 09:22:25;;;;;;;1.90;0.93;;;20.10;48.60;;;;;;5073401;28;20241;-51
2021/09/20 09:25:03;;;;;;;1.85;1.23;;;20.00;48.60;;;;;;5068045;28;20679;-48
2021/09/20 09:27:35;;;;;;;2.80;1.17;;;20.00;48.60;;;;;;5054295;28;20207;-46
2021/09/20 09:30:09;;;;;;;1.45;0.73;;;20.00;48.70;;;;;;5052527;28;20238;-47
2021/09/20 09:32:40;;;;;;;2.28;1.05;;;20.00;48.70;;;;;;5053046;28;20198;-49
2021/09/20 09:35:11;;;;;;;1.95;1.00;;;20.00;48.90;;;;;;5049424;28;20208;-51
2021/09/20 09:37:42;;;;;;;2.53;1.33;;;19.90;49.00;;;;;;5051912;28;20722;-47
2021/09/20 09:40:21;;;;;;;2.80;1.20;;;19.90;49.10;;;;;;5050546;28;20219;-53
2021/09/20 09:42:54;;;;;;;1.50;0.93;;;19.90;49.20;;;;;;5052402;28;20758;-51
2021/09/20 09:45:29;;;;;;;3.05;1.30;;;19.90;49.20;;;;;;5052912;28;20570;-47
2021/09/20 09:48:16;;;;;;;1.80;1.08;;;19.90;49.20;;;;;;5058341;28;20297;-46
2021/09/20 09:50:48;;;;;;;2.40;1.20;;;19.90;49.20;;;;;;5052317;28;20648;-44
2021/09/20 09:53:29;;;;;;;3.88;1.20;;;19.90;49.10;;;;;;5072891;28;20258;-46
2021/09/20 09:56:00;;;;;;;2.78;1.40;;;19.80;49.10;;;;;;5057096;28;20238;-41
2021/09/20 09:58:33;;;;;;;1.73;1.00;;;19.80;49.00;;;;;;5051911;28;20318;-44
2021/09/20 10:01:17;;;;;;;4.38;1.08;;;19.80;49.10;;;;;;5051925;28;20223;-48
2021/09/20 10:04:06;;;;;;;2.65;1.05;;;19.70;49.00;;;;;;5046232;28;20282;-51
2021/09/20 10:09:02;;;;;;;4.90;1.77;;;19.70;49.00;;;;;;5109615;22;20705;-52
2021/09/20 10:11:33;;;;;;;2.45;1.42;;;19.70;49.00;;;;;;5092226;28;20233;-51
2021/09/20 10:14:05;;;;;;;2.25;1.17;;;19.70;49.00;;;;;;5087154;28;20710;-59
2021/09/20 10:16:36;;;;;;;2.30;1.30;;;19.60;49.00;;;;;;5090234;28;20198;-49
2021/09/20 10:19:06;;;;;;;1.88;1.20;;;19.60;49.00;;;;;;5069207;28;20262;-50
2021/09/20 10:21:37;;;;;;;2.42;1.30;;;19.60;49.00;;;;;;5069250;28;20662;-53
2021/09/20 10:24:07;;;;;;;2.88;1.05;;;19.60;49.00;;;;;;5071496;28;20736;-53
2021/09/20 10:26:38;;;;;;;2.60;1.20;;;19.50;49.00;;;;;;5070180;28;20244;-54
2021/09/20 10:29:10;;;;;;;2.97;1.40;;;19.50;49.00;;;;;;5071544;28;20238;-58
2021/09/20 10:31:41;;;;;;;2.78;1.25;;;19.50;49.00;;;;;;5069769;28;20237;-52
2021/09/20 10:34:30;;;;;;;2.15;1.10;;;19.50;49.00;;;;;;5068964;28;20252;-55
2021/09/20 10:37:05;;;;;;;3.10;1.35;;;19.40;49.00;;;;;;5065682;28;20219;-50
2021/09/20 10:39:58;;;;;;;2.95;1.38;;;19.50;49.00;;;;;;5071593;28;20191;-54
2021/09/20 10:42:57;;;;;;;1.88;1.13;;;19.40;49.00;;;;;;5068967;28;20207;-54
2021/09/20 10:45:49;;;;;;;2.42;1.30;;;19.40;49.00;;;;;;5070441;28;20620;-58
2021/09/20 10:48:30;;;;;;;3.10;1.25;;;19.40;48.90;;;;;;5083126;28;20355;-58
2021/09/20 10:51:04;;;;;;;1.83;1.10;;;19.40;49.00;;;;;;5091829;28;20237;-57
2021/09/20 10:53:35;;;;;;;2.85;1.60;;;19.30;49.00;;;;;;5085218;28;20193;-58
2021/09/20 10:56:35;;;;;;;2.60;1.20;;;19.30;49.00;;;;;;5069239;28;20253;-58
2021/09/20 10:59:19;;;;;;;1.80;1.23;;;19.30;49.10;;;;;;5058768;28;20222;-57
2021/09/20 11:02:04;;;;;;;2.45;1.50;;;19.30;49.10;;;;;;5068744;28;20624;-57
2021/09/20 11:04:36;;;;;;;2.72;1.27;;;19.20;49.00;;;;;;5068143;28;20198;-56
2021/09/20 11:07:17;;;;;;;2.33;1.38;;;19.20;49.00;;;;;;5070534;28;20222;-58
2021/09/20 11:10:06;;;;;;;1.67;1.17;;;19.20;49.10;;;;;;5065324;28;20199;-57
2021/09/20 11:12:39;;;;;;;2.88;1.40;;;19.20;49.10;;;;;;5070959;28;20202;-55
2021/09/20 11:15:18;;;;;;;3.15;1.40;;;19.20;49.20;;;;;;5068614;28;20248;-53
2021/09/20 11:17:52;;;;;;;2.30;1.17;;;19.10;49.20;;;;;;5067690;28;20230;-51
2021/09/20 11:20:40;;;;;;;2.40;1.23;;;19.10;49.10;;;;;;5074036;28;20715;-56
2021/09/20 11:23:36;;;;;;;2.95;1.15;;;19.10;49.20;;;;;;5084533;28;20658;-58
2021/09/20 11:26:20;;;;;;;3.83;1.23;;;19.10;49.10;;;;;;5064915;28;20285;-54
2021/09/20 11:28:55;;;;;;;2.58;1.20;;;19.10;49.10;;;;;;5070111;28;20256;-57
2021/09/20 11:31:34;;;;;;;1.88;1.10;;;19.00;49.10;;;;;;5071647;28;20233;-56
2021/09/20 11:34:07;;;;;;;3.20;1.33;;;19.00;49.10;;;;;;5071011;28;20726;-57
2021/09/20 11:36:37;;;;;;;2.55;1.40;;;19.00;49.10;;;;;;5070766;28;20573;-56
2021/09/20 11:39:15;;;;;;;2.92;1.00;;;19.00;49.10;;;;;;5071097;28;20234;-57
2021/09/20 11:41:47;;;;;;;2.88;1.10;;;18.90;49.10;;;;;;5071685;28;20561;-58
2021/09/20 11:44:17;;;;;;;2.33;1.20;;;18.90;49.20;;;;;;5071215;28;20230;-57
2021/09/20 11:46:49;;;;;;;2.13;1.50;;;18.90;49.20;;;;;;5070643;28;20237;-47
2021/09/20 11:49:21;;;;;;;3.88;1.30;;;18.90;49.20;;;;;;5069785;28;20277;-48
2021/09/20 11:51:57;;;;;;;1.98;1.08;;;18.90;49.20;;;;;;5070499;28;20689;-54
2021/09/20 11:54:31;;;;;;;1.85;1.10;;;18.90;49.30;;;;;;5069601;28;20645;-58
2021/09/20 11:57:15;;;;;;;1.83;1.00;;;18.80;49.30;;;;;;5068794;28;20245;-47
2021/09/20 11:59:45;;;;;;;1.77;1.10;;;18.80;49.20;;;;;;5069631;28;20716;-56
2021/09/20 12:02:35;;;;;;;1.98;1.00;;;18.80;49.20;;;;;;5069223;28;20730;-56
2021/09/20 12:05:07;;;;;;;2.05;1.27;;;18.80;49.20;;;;;;5070138;28;20226;-50
2021/09/20 12:07:45;;;;;;;2.53;1.50;;;18.80;49.80;;;;;;5070212;28;20750;-54
2021/09/20 12:10:15;;;;;;;2.75;1.40;;;18.80;49.30;;;;;;5070255;28;20225;-58
2021/09/20 12:12:48;;;;;;;2.38;1.20;;;18.70;49.40;;;;;;5070781;28;20222;-58
2021/09/20 12:15:19;;;;;;;2.05;1.10;;;18.70;49.20;;;;;;5071056;28;20195;-58
2021/09/20 12:17:51;;;;;;;3.10;1.50;;;18.70;49.20;;;;;;5063559;28;20339;-57
2021/09/20 12:20:24;;;;;;;2.13;1.27;;;18.70;49.30;;;;;;5054656;28;20509;-57
2021/09/20 12:22:55;;;;;;;1.83;1.20;;;18.60;49.30;;;;;;5051025;28;20288;-55
2021/09/20 12:25:28;;;;;;;2.95;1.23;;;18.60;49.30;;;;;;5059221;28;20241;-57
2021/09/20 12:27:58;;;;;;;1.83;1.20;;;18.60;49.30;;;;;;5070258;28;20650;-57
2021/09/20 12:30:29;;;;;;;3.17;1.40;;;18.60;49.40;;;;;;5070200;28;20199;-57
2021/09/20 12:33:06;;;;;;;2.28;1.13;;;18.60;49.40;;;;;;5070108;28;20222;-57
2021/09/20 12:35:39;;;;;;;1.77;1.27;;;18.60;49.40;;;;;;5070866;28;20607;-53
2021/09/20 12:38:36;;;;;;;2.53;1.23;;;18.60;49.40;;;;;;5072483;28;20321;-57
2021/09/20 12:41:14;;;;;;;1.52;1.10;;;18.60;49.40;;;;;;5050888;28;20199;-56
2021/09/20 12:43:44;;;;;;;2.17;1.20;;;18.50;49.30;;;;;;5074402;28;20230;-56
2021/09/20 12:46:17;;;;;;;2.95;1.50;;;18.50;49.30;;;;;;5074395;28;20241;-55
2021/09/20 12:48:53;;;;;;;1.85;1.15;;;18.50;49.40;;;;;;5073915;28;20653;-57
2021/09/20 12:51:25;;;;;;;1.95;1.13;;;18.50;49.30;;;;;;5073802;28;20226;-57
2021/09/20 12:53:57;;;;;;;1.33;1.15;;;18.50;49.40;;;;;;5074392;28;20226;-57
2021/09/20 12:56:32;;;;;;;2.22;1.38;;;18.50;49.40;;;;;;5074280;28;20205;-57
2021/09/20 12:59:17;;;;;;;2.15;1.10;;;18.50;49.40;;;;;;5074141;28;20270;-56
2021/09/20 13:01:48;;;;;;;3.00;1.35;;;18.40;49.40;;;;;;5074247;28;20727;-57
2021/09/20 13:04:35;;;;;;;2.22;1.20;;;18.40;49.40;;;;;;5073815;28;20230;-56
2021/09/20 13:07:14;;;;;;;2.10;1.10;;;18.40;49.40;;;;;;5074300;28;20710;-57
2021/09/20 13:09:44;;;;;;;2.85;1.50;;;18.40;49.40;;;;;;5073668;28;20230;-58
2021/09/20 13:12:16;;;;;;;2.17;1.20;;;18.40;49.50;;;;;;5073939;28;20238;-57
2021/09/20 13:14:54;;;;;;;2.67;1.17;;;18.40;49.60;;;;;;5073577;28;20285;-53